sensor_id;sensor_type;location;lat;lon;timestamp;pressure;altitude;pressure_sealevel;temperature;humidity
78170;BME280;67412;49.892;14.490;2024-02-21T00:02:20;97943.97;;;5.49;100.00
78170;BME280;67412;49.892;14.490;2024-02-21T00:04:45;97942.28;;;5.49;100.00
78170;BME280;67412;49.892;14.490;2024-02-21T00:07:10;97938.91;;;5.50;100.00
78170;BME280;67412;49.892;14.490;2024-02-21T00:09:36;97936.38;;;5.52;100.00
78170;BME280;67412;49.892;14.490;2024-02-21T00:12:01;97930.41;;;5.50;100.00
78170;BME280;67412;49.892;14.490;2024-02-21T00:14:26;97930.38;;;5.48;100.00
78170;BME280;67412;49.892;14.490;2024-02-21T00:16:52;97930.38;;;5.48;100.00
78170;BME280;67412;49.892;14.490;2024-02-21T00:19:17;97917.63;;;5.48;100.00
78170;BME280;67412;49.892;14.490;2024-02-21T00:21:42;97918.53;;;5.50;100.00
78170;BME280;67412;49.892;14.490;2024-02-21T00:24:08;97905.75;;;5.49;100.00
78170;BME280;67412;49.892;14.490;2024-02-21T00:26:33;97915.09;;;5.48;100.00
78170;BME280;67412;49.892;14.490;2024-02-21T00:28:58;97911.63;;;5.43;100.00
78170;BME280;67412;49.892;14.490;2024-02-21T00:31:24;97902.38;;;5.51;100.00
78170;BME280;67412;49.892;14.490;2024-02-21T00:33:49;97895.53;;;5.46;100.00
78170;BME280;67412;49.892;14.490;2024-02-21T00:36:15;97901.44;;;5.43;100.00
78170;BME280;67412;49.892;14.490;2024-02-21T00:38:41;97892.13;;;5.45;100.00
78170;BME280;67412;49.892;14.490;2024-02-21T00:41:06;97894.41;;;5.28;100.00
78170;BME280;67412;49.892;14.490;2024-02-21T00:43:32;97885.97;;;5.31;100.00
78170;BME280;67412;49.892;14.490;2024-02-21T00:45:57;97886.78;;;5.30;100.00
78170;BME280;67412;49.892;14.490;2024-02-21T00:48:22;97883.38;;;5.29;100.00
78170;BME280;67412;49.892;14.490;2024-02-21T00:50:48;97877.34;;;5.23;100.00
78170;BME280;67412;49.892;14.490;2024-02-21T00:53:13;97878.13;;;5.19;100.00
78170;BME280;67412;49.892;14.490;2024-02-21T00:55:38;97873.06;;;5.20;100.00
78170;BME280;67412;49.892;14.490;2024-02-21T00:58:05;97881.47;;;5.16;100.00
78170;BME280;67412;49.892;14.490;2024-02-21T01:00:30;97877.19;;;5.14;100.00
78170;BME280;67412;49.892;14.490;2024-02-21T01:02:56;97873.84;;;5.18;100.00
78170;BME280;67412;49.892;14.490;2024-02-21T01:05:21;97878.13;;;5.17;100.00
78170;BME280;67412;49.892;14.490;2024-02-21T01:07:47;97874.66;;;5.15;100.00
78170;BME280;67412;49.892;14.490;2024-02-21T01:10:13;97867.13;;;5.21;100.00
78170;BME280;67412;49.892;14.490;2024-02-21T01:12:38;97869.53;;;5.14;100.00
78170;BME280;67412;49.892;14.490;2024-02-21T01:15:03;97868.69;;;5.12;100.00
78170;BME280;67412;49.892;14.490;2024-02-21T01:17:29;97858.50;;;5.12;100.00
78170;BME280;67412;49.892;14.490;2024-02-21T01:19:55;97863.50;;;5.06;100.00
78170;BME280;67412;49.892;14.490;2024-02-21T01:22:20;97856.63;;;5.02;100.00
78170;BME280;67412;49.892;14.490;2024-02-21T01:24:45;97855.66;;;4.95;100.00
78170;BME280;67412;49.892;14.490;2024-02-21T01:27:11;97853.84;;;4.86;100.00
78170;BME280;67412;49.892;14.490;2024-02-21T01:29:36;97850.28;;;4.77;100.00
78170;BME280;67412;49.892;14.490;2024-02-21T01:32:02;97849.38;;;4.73;100.00
78170;BME280;67412;49.892;14.490;2024-02-21T01:34:27;97849.34;;;4.72;100.00
78170;BME280;67412;49.892;14.490;2024-02-21T01:36:52;97845.94;;;4.71;100.00
78170;BME280;67412;49.892;14.490;2024-02-21T01:39:18;97843.41;;;4.73;100.00
78170;BME280;67412;49.892;14.490;2024-02-21T01:41:43;97836.69;;;4.75;100.00
78170;BME280;67412;49.892;14.490;2024-02-21T01:44:08;97836.72;;;4.78;100.00
78170;BME280;67412;49.892;14.490;2024-02-21T01:46:34;97834.31;;;4.85;100.00
78170;BME280;67412;49.892;14.490;2024-02-21T01:49:00;97833.53;;;4.90;100.00
78170;BME280;67412;49.892;14.490;2024-02-21T01:51:26;97825.19;;;5.00;100.00
78170;BME280;67412;49.892;14.490;2024-02-21T01:53:53;97820.22;;;5.07;100.00
78170;BME280;67412;49.892;14.490;2024-02-21T01:56:20;97813.50;;;5.12;100.00
78170;BME280;67412;49.892;14.490;2024-02-21T01:58:46;97811.78;;;5.11;100.00
78170;BME280;67412;49.892;14.490;2024-02-21T02:01:13;97813.59;;;5.17;100.00
78170;BME280;67412;49.892;14.490;2024-02-21T02:03:39;97802.50;;;5.13;100.00
78170;BME280;67412;49.892;14.490;2024-02-21T02:06:05;97805.09;;;5.16;100.00
78170;BME280;67412;49.892;14.490;2024-02-21T02:08:32;97802.63;;;5.22;100.00
78170;BME280;67412;49.892;14.490;2024-02-21T02:10:58;97793.19;;;5.15;100.00
78170;BME280;67412;49.892;14.490;2024-02-21T02:13:24;97800.84;;;5.17;100.00
78170;BME280;67412;49.892;14.490;2024-02-21T02:15:49;97794.91;;;5.16;100.00
78170;BME280;67412;49.892;14.490;2024-02-21T02:18:16;97793.94;;;5.08;100.00
78170;BME280;67412;49.892;14.490;2024-02-21T02:20:43;97789.66;;;5.07;100.00
78170;BME280;67412;49.892;14.490;2024-02-21T02:25:41;97789.69;;;5.09;100.00
78170;BME280;67412;49.892;14.490;2024-02-21T02:28:07;97779.59;;;5.13;100.00
78170;BME280;67412;49.892;14.490;2024-02-21T02:30:33;97781.34;;;5.17;100.00
78170;BME280;67412;49.892;14.490;2024-02-21T02:33:00;97782.22;;;5.19;100.00
78170;BME280;67412;49.892;14.490;2024-02-21T02:35:25;97776.25;;;5.17;100.00
78170;BME280;67412;49.892;14.490;2024-02-21T02:38:12;97771.09;;;5.14;100.00
78170;BME280;67412;49.892;14.490;2024-02-21T02:40:38;97765.97;;;5.11;100.00
78170;BME280;67412;49.892;14.490;2024-02-21T02:43:04;97768.50;;;5.10;100.00
78170;BME280;67412;49.892;14.490;2024-02-21T02:45:30;97762.41;;;5.00;100.00
78170;BME280;67412;49.892;14.490;2024-02-21T02:51:04;97753.00;;;4.95;100.00
78170;BME280;67412;49.892;14.490;2024-02-21T02:53:29;97750.34;;;4.87;100.00
78170;BME280;67412;49.892;14.490;2024-02-21T02:55:55;97755.31;;;4.79;100.00
78170;BME280;67412;49.892;14.490;2024-02-21T02:58:21;97750.19;;;4.78;100.00
78170;BME280;67412;49.892;14.490;2024-02-21T03:00:46;97744.34;;;4.83;100.00
78170;BME280;67412;49.892;14.490;2024-02-21T03:03:11;97740.06;;;4.81;100.00
78170;BME280;67412;49.892;14.490;2024-02-21T03:05:37;97738.16;;;4.68;100.00
78170;BME280;67412;49.892;14.490;2024-02-21T03:08:02;97736.38;;;4.61;100.00
78170;BME280;67412;49.892;14.490;2024-02-21T03:10:32;97730.41;;;4.60;100.00
78170;BME280;67412;49.892;14.490;2024-02-21T03:12:57;97723.59;;;4.59;100.00
78170;BME280;67412;49.892;14.490;2024-02-21T03:15:22;97731.19;;;4.56;100.00
78170;BME280;67412;49.892;14.490;2024-02-21T03:17:48;97725.16;;;4.50;100.00
78170;BME280;67412;49.892;14.490;2024-02-21T03:20:13;97725.25;;;4.56;100.00
78170;BME280;67412;49.892;14.490;2024-02-21T03:22:39;97733.81;;;4.61;100.00
78170;BME280;67412;49.892;14.490;2024-02-21T03:25:05;97728.84;;;4.68;100.00
78170;BME280;67412;49.892;14.490;2024-02-21T03:27:30;97728.78;;;4.65;100.00
78170;BME280;67412;49.892;14.490;2024-02-21T03:29:56;97731.41;;;4.68;100.00
78170;BME280;67412;49.892;14.490;2024-02-21T03:32:21;97731.59;;;4.82;100.00
78170;BME280;67412;49.892;14.490;2024-02-21T03:34:46;97725.69;;;4.83;100.00
78170;BME280;67412;49.892;14.490;2024-02-21T03:37:12;97724.81;;;4.82;100.00
78170;BME280;67412;49.892;14.490;2024-02-21T03:39:39;97723.06;;;4.78;100.00
78170;BME280;67412;49.892;14.490;2024-02-21T03:42:05;97725.50;;;4.71;100.00
78170;BME280;67412;49.892;14.490;2024-02-21T03:44:31;97720.44;;;4.74;100.00
78170;BME280;67412;49.892;14.490;2024-02-21T03:46:58;97727.09;;;4.64;100.00
78170;BME280;67412;49.892;14.490;2024-02-21T03:49:24;97727.03;;;4.61;100.00
78170;BME280;67412;49.892;14.490;2024-02-21T03:51:49;97721.94;;;4.61;100.00
78170;BME280;67412;49.892;14.490;2024-02-21T03:54:14;97722.91;;;4.68;100.00
78170;BME280;67412;49.892;14.490;2024-02-21T03:56:40;97723.69;;;4.65;100.00
78170;BME280;67412;49.892;14.490;2024-02-21T03:59:07;97712.59;;;4.60;100.00
78170;BME280;67412;49.892;14.490;2024-02-21T04:01:33;97717.78;;;4.66;100.00
78170;BME280;67412;49.892;14.490;2024-02-21T04:03:59;97710.00;;;4.56;100.00
78170;BME280;67412;49.892;14.490;2024-02-21T04:06:24;97721.94;;;4.61;100.00
78170;BME280;67412;49.892;14.490;2024-02-21T04:08:49;97718.59;;;4.65;100.00
78170;BME280;67412;49.892;14.490;2024-02-21T04:11:14;97717.81;;;4.68;100.00
78170;BME280;67412;49.892;14.490;2024-02-21T04:13:40;97713.56;;;4.67;100.00
78170;BME280;67412;49.892;14.490;2024-02-21T04:16:05;97708.66;;;4.80;100.00
78170;BME280;67412;49.892;14.490;2024-02-21T04:18:31;97713.00;;;4.86;100.00
78170;BME280;67412;49.892;14.490;2024-02-21T04:20:56;97711.19;;;4.79;100.00
78170;BME280;67412;49.892;14.490;2024-02-21T04:23:22;97711.13;;;4.74;100.00
78170;BME280;67412;49.892;14.490;2024-02-21T04:25:47;97705.13;;;4.72;100.00
78170;BME280;67412;49.892;14.490;2024-02-21T04:28:12;97706.03;;;4.74;100.00
78170;BME280;67412;49.892;14.490;2024-02-21T04:30:38;97702.59;;;4.71;100.00
78170;BME280;67412;49.892;14.490;2024-02-21T04:33:03;97706.06;;;4.76;100.00
78170;BME280;67412;49.892;14.490;2024-02-21T04:35:28;97707.69;;;4.72;100.00
78170;BME280;67412;49.892;14.490;2024-02-21T04:37:54;97703.41;;;4.68;100.00
78170;BME280;67412;49.892;14.490;2024-02-21T04:40:20;97700.03;;;4.72;100.00
78170;BME280;67412;49.892;14.490;2024-02-21T04:42:45;97698.31;;;4.70;100.00
78170;BME280;67412;49.892;14.490;2024-02-21T04:45:10;97689.78;;;4.66;100.00
78170;BME280;67412;49.892;14.490;2024-02-21T04:47:36;97695.66;;;4.61;100.00
78170;BME280;67412;49.892;14.490;2024-02-21T04:50:01;97686.31;;;4.61;100.00
78170;BME280;67412;49.892;14.490;2024-02-21T04:52:26;97687.06;;;4.54;100.00
78170;BME280;67412;49.892;14.490;2024-02-21T04:54:52;97691.13;;;4.42;100.00
78170;BME280;67412;49.892;14.490;2024-02-21T04:57:17;97689.38;;;4.39;100.00
78170;BME280;67412;49.892;14.490;2024-02-21T04:59:46;97687.59;;;4.35;100.00
78170;BME280;67412;49.892;14.490;2024-02-21T05:02:14;97691.69;;;4.25;100.00
78170;BME280;67412;49.892;14.490;2024-02-21T05:04:39;97684.84;;;4.20;100.00
78170;BME280;67412;49.892;14.490;2024-02-21T05:07:06;97689.88;;;4.18;100.00
78170;BME280;67412;49.892;14.490;2024-02-21T05:09:32;97679.72;;;4.18;100.00
78170;BME280;67412;49.892;14.490;2024-02-21T05:11:57;97680.53;;;4.17;100.00
78170;BME280;67412;49.892;14.490;2024-02-21T05:14:24;97685.63;;;4.17;100.00
78170;BME280;67412;49.892;14.490;2024-02-21T05:16:49;97681.34;;;4.16;100.00
78170;BME280;67412;49.892;14.490;2024-02-21T05:19:15;97673.78;;;4.18;100.00
78170;BME280;67412;49.892;14.490;2024-02-21T05:21:40;97672.13;;;4.20;100.00
78170;BME280;67412;49.892;14.490;2024-02-21T05:24:05;97678.00;;;4.16;100.00
78170;BME280;67412;49.892;14.490;2024-02-21T05:26:31;97679.69;;;4.15;100.00
78170;BME280;67412;49.892;14.490;2024-02-21T05:28:56;97671.28;;;4.19;100.00
78170;BME280;67412;49.892;14.490;2024-02-21T05:31:21;97670.53;;;4.26;100.00
78170;BME280;67412;49.892;14.490;2024-02-21T05:33:47;97670.50;;;4.25;100.00
78170;BME280;67412;49.892;14.490;2024-02-21T05:36:13;97660.25;;;4.19;100.00
78170;BME280;67412;49.892;14.490;2024-02-21T05:38:38;97657.66;;;4.16;100.00
78170;BME280;67412;49.892;14.490;2024-02-21T05:41:04;97660.97;;;4.13;100.00
78170;BME280;67412;49.892;14.490;2024-02-21T05:43:30;97658.50;;;4.18;100.00
78170;BME280;67412;49.892;14.490;2024-02-21T05:45:55;97649.38;;;4.29;100.00
78170;BME280;67412;49.892;14.490;2024-02-21T05:48:22;97651.84;;;4.24;100.00
78170;BME280;67412;49.892;14.490;2024-02-21T05:50:47;97650.94;;;4.19;100.00
78170;BME280;67412;49.892;14.490;2024-02-21T05:53:12;97656.06;;;4.22;100.00
78170;BME280;67412;49.892;14.490;2024-02-21T05:55:38;97660.31;;;4.25;100.00
78170;BME280;67412;49.892;14.490;2024-02-21T05:58:04;97650.19;;;4.28;100.00
78170;BME280;67412;49.892;14.490;2024-02-21T06:00:31;97646.81;;;4.29;100.00
78170;BME280;67412;49.892;14.490;2024-02-21T06:02:56;97651.91;;;4.29;100.00
78170;BME280;67412;49.892;14.490;2024-02-21T06:05:21;97658.84;;;4.39;100.00
78170;BME280;67412;49.892;14.490;2024-02-21T06:07:47;97654.63;;;4.39;100.00
78170;BME280;67412;49.892;14.490;2024-02-21T06:10:12;97650.44;;;4.43;100.00
78170;BME280;67412;49.892;14.490;2024-02-21T06:12:37;97648.00;;;4.49;100.00
78170;BME280;67412;49.892;14.490;2024-02-21T06:15:03;97641.25;;;4.53;100.00
78170;BME280;67412;49.892;14.490;2024-02-21T06:17:28;97638.72;;;4.54;100.00
78170;BME280;67412;49.892;14.490;2024-02-21T06:19:54;97638.88;;;4.63;100.00
78170;BME280;67412;49.892;14.490;2024-02-21T06:22:19;97633.00;;;4.67;100.00
78170;BME280;67412;49.892;14.490;2024-02-21T06:24:44;97643.13;;;4.66;100.00
78170;BME280;67412;49.892;14.490;2024-02-21T06:27:11;97642.16;;;4.58;100.00
78170;BME280;67412;49.892;14.490;2024-02-21T06:29:36;97640.47;;;4.58;100.00
78170;BME280;67412;49.892;14.490;2024-02-21T06:32:02;97646.44;;;4.57;100.00
78170;BME280;67412;49.892;14.490;2024-02-21T06:34:27;97654.06;;;4.57;100.00
78170;BME280;67412;49.892;14.490;2024-02-21T06:36:52;97655.78;;;4.61;100.00
78170;BME280;67412;49.892;14.490;2024-02-21T06:39:18;97651.56;;;4.62;100.00
78170;BME280;67412;49.892;14.490;2024-02-21T06:41:43;97649.13;;;4.69;100.00
78170;BME280;67412;49.892;14.490;2024-02-21T06:44:09;97639.94;;;4.79;100.00
78170;BME280;67412;49.892;14.490;2024-02-21T06:46:35;97637.56;;;4.93;100.00
78170;BME280;67412;49.892;14.490;2024-02-21T06:49:01;97645.22;;;4.96;100.00
78170;BME280;67412;49.892;14.490;2024-02-21T06:51:27;97646.19;;;5.04;100.00
78170;BME280;67412;49.892;14.490;2024-02-21T06:53:53;97637.78;;;5.11;100.00
78170;BME280;67412;49.892;14.490;2024-02-21T06:56:19;97632.81;;;5.20;100.00
78170;BME280;67412;49.892;14.490;2024-02-21T06:58:45;97637.06;;;5.19;100.00
78170;BME280;67412;49.892;14.490;2024-02-21T07:01:11;97636.31;;;5.28;100.00
78170;BME280;67412;49.892;14.490;2024-02-21T07:03:36;97635.38;;;5.20;100.00
78170;BME280;67412;49.892;14.490;2024-02-21T07:06:02;97641.41;;;5.28;100.00
78170;BME280;67412;49.892;14.490;2024-02-21T07:08:27;97642.25;;;5.30;100.00
78170;BME280;67412;49.892;14.490;2024-02-21T07:10:53;97642.34;;;5.36;100.00
78170;BME280;67412;49.892;14.490;2024-02-21T07:13:18;97643.25;;;5.41;100.00
78170;BME280;67412;49.892;14.490;2024-02-21T07:15:43;97636.53;;;5.49;100.00
78170;BME280;67412;49.892;14.490;2024-02-21T07:18:09;97635.78;;;5.58;100.00
78170;BME280;67412;49.892;14.490;2024-02-21T07:20:34;97630.75;;;5.67;100.00
78170;BME280;67412;49.892;14.490;2024-02-21T07:23:02;97630.78;;;5.70;100.00
78170;BME280;67412;49.892;14.490;2024-02-21T07:25:27;97629.91;;;5.66;100.00
78170;BME280;67412;49.892;14.490;2024-02-21T07:27:52;97629.09;;;5.69;100.00
78170;BME280;67412;49.892;14.490;2024-02-21T07:30:18;97634.19;;;5.66;100.00
78170;BME280;67412;49.892;14.490;2024-02-21T07:32:43;97626.50;;;5.64;100.00
78170;BME280;67412;49.892;14.490;2024-02-21T07:35:09;97617.94;;;5.59;100.00
78170;BME280;67412;49.892;14.490;2024-02-21T07:37:36;97614.47;;;5.50;100.00
78170;BME280;67412;49.892;14.490;2024-02-21T07:40:03;97620.41;;;5.47;100.00
78170;BME280;67412;49.892;14.490;2024-02-21T07:42:28;97623.78;;;5.48;100.00
78170;BME280;67412;49.892;14.490;2024-02-21T07:44:54;97616.16;;;5.49;100.00
78170;BME280;67412;49.892;14.490;2024-02-21T07:47:21;97619.63;;;5.57;100.00
78170;BME280;67412;49.892;14.490;2024-02-21T07:49:46;97628.19;;;5.62;100.00
78170;BME280;67412;49.892;14.490;2024-02-21T07:52:13;97622.31;;;5.71;100.00
78170;BME280;67412;49.892;14.490;2024-02-21T07:54:39;97630.81;;;5.71;100.00
78170;BME280;67412;49.892;14.490;2024-02-21T07:57:04;97626.66;;;5.79;100.00
78170;BME280;67412;49.892;14.490;2024-02-21T07:59:29;97637.78;;;5.86;100.00
78170;BME280;67412;49.892;14.490;2024-02-21T08:01:56;97632.75;;;5.94;100.00
78170;BME280;67412;49.892;14.490;2024-02-21T08:04:22;97630.22;;;5.94;100.00
78170;BME280;67412;49.892;14.490;2024-02-21T08:06:52;97623.47;;;6.00;100.00
78170;BME280;67412;49.892;14.490;2024-02-21T08:09:18;97618.41;;;6.05;100.00
78170;BME280;67412;49.892;14.490;2024-02-21T08:11:44;97619.28;;;6.07;100.00
78170;BME280;67412;49.892;14.490;2024-02-21T08:14:09;97616.66;;;6.01;100.00
78170;BME280;67412;49.892;14.490;2024-02-21T08:16:34;97609.09;;;6.07;100.00
78170;BME280;67412;49.892;14.490;2024-02-21T08:18:59;97613.38;;;6.11;100.00
78170;BME280;67412;49.892;14.490;2024-02-21T08:21:27;97608.22;;;6.08;100.00
78170;BME280;67412;49.892;14.490;2024-02-21T08:23:52;97599.81;;;6.18;100.00
78170;BME280;67412;49.892;14.490;2024-02-21T08:26:19;97593.03;;;6.20;100.00
78170;BME280;67412;49.892;14.490;2024-02-21T08:28:45;97593.03;;;6.23;100.00
78170;BME280;67412;49.892;14.490;2024-02-21T08:31:10;97592.22;;;6.27;100.00
78170;BME280;67412;49.892;14.490;2024-02-21T08:33:35;97587.13;;;6.30;100.00
78170;BME280;67412;49.892;14.490;2024-02-21T08:36:00;97595.66;;;6.29;100.00
78170;BME280;67412;49.892;14.490;2024-02-21T08:38:26;97586.31;;;6.36;100.00
78170;BME280;67412;49.892;14.490;2024-02-21T08:40:51;97584.63;;;6.36;100.00
78170;BME280;67412;49.892;14.490;2024-02-21T08:43:16;97583.00;;;6.44;100.00
78170;BME280;67412;49.892;14.490;2024-02-21T08:45:42;97583.00;;;6.44;100.00
78170;BME280;67412;49.892;14.490;2024-02-21T08:48:07;97583.91;;;6.55;100.00
78170;BME280;67412;49.892;14.490;2024-02-21T08:50:33;97581.38;;;6.61;100.00
78170;BME280;67412;49.892;14.490;2024-02-21T08:52:58;97581.38;;;6.64;100.00
78170;BME280;67412;49.892;14.490;2024-02-21T08:55:23;97576.34;;;6.76;100.00
78170;BME280;67412;49.892;14.490;2024-02-21T08:57:49;97576.38;;;6.82;100.00
78170;BME280;67412;49.892;14.490;2024-02-21T09:00:15;97572.13;;;6.82;100.00
78170;BME280;67412;49.892;14.490;2024-02-21T09:02:41;97577.22;;;6.83;100.00
78170;BME280;67412;49.892;14.490;2024-02-21T09:05:10;97576.47;;;7.01;100.00
78170;BME280;67412;49.892;14.490;2024-02-21T09:07:35;97582.47;;;7.15;100.00
78170;BME280;67412;49.892;14.490;2024-02-21T09:10:01;97580.78;;;7.27;100.00
78170;BME280;67412;49.892;14.490;2024-02-21T09:12:26;97596.13;;;7.27;100.00
78170;BME280;67412;49.892;14.490;2024-02-21T09:14:52;97595.25;;;7.24;100.00
78170;BME280;67412;49.892;14.490;2024-02-21T09:17:17;97576.56;;;7.33;100.00
78170;BME280;67412;49.892;14.490;2024-02-21T09:19:44;97586.75;;;7.28;100.00
78170;BME280;67412;49.892;14.490;2024-02-21T09:22:09;97589.34;;;7.29;100.00
78170;BME280;67412;49.892;14.490;2024-02-21T09:24:34;97601.28;;;7.37;100.00
78170;BME280;67412;49.892;14.490;2024-02-21T09:27:00;97603.84;;;7.47;100.00
78170;BME280;67412;49.892;14.490;2024-02-21T09:29:25;97605.56;;;7.42;100.00
78170;BME280;67412;49.892;14.490;2024-02-21T09:31:51;97600.47;;;7.45;100.00
78170;BME280;67412;49.892;14.490;2024-02-21T09:34:17;97588.56;;;7.61;100.00
78170;BME280;67412;49.892;14.490;2024-02-21T09:36:42;97586.84;;;7.60;100.00
78170;BME280;67412;49.892;14.490;2024-02-21T09:39:08;97581.72;;;7.55;100.00
78170;BME280;67412;49.892;14.490;2024-02-21T09:41:38;97558.72;;;7.61;100.00
78170;BME280;67412;49.892;14.490;2024-02-21T09:44:09;97550.22;;;7.88;100.00
78170;BME280;67412;49.892;14.490;2024-02-21T09:47:02;97559.59;;;8.29;100.00
78170;BME280;67412;49.892;14.490;2024-02-21T09:49:32;97549.28;;;8.69;100.00
78170;BME280;67412;49.892;14.490;2024-02-21T09:52:00;97550.09;;;8.70;100.00
78170;BME280;67412;49.892;14.490;2024-02-21T09:54:27;97537.25;;;8.91;100.00
78170;BME280;67412;49.892;14.490;2024-02-21T09:56:53;97535.53;;;8.92;100.00
78170;BME280;67412;49.892;14.490;2024-02-21T09:59:18;97536.31;;;9.00;100.00
78170;BME280;67412;49.892;14.490;2024-02-21T10:01:44;97524.28;;;9.21;100.00
78170;BME280;67412;49.892;14.490;2024-02-21T10:04:10;97514.75;;;9.43;100.00
78170;BME280;67412;49.892;14.490;2024-02-21T10:06:35;97501.66;;;9.77;100.00
78170;BME280;67412;49.892;14.490;2024-02-21T10:09:03;97510.16;;;9.85;97.88
78170;BME280;67412;49.892;14.490;2024-02-21T10:11:28;97504.53;;;9.37;95.99
78170;BME280;67412;49.892;14.490;2024-02-21T10:14:06;97501.16;;;9.26;98.83
78170;BME280;67412;49.892;14.490;2024-02-21T10:16:32;97503.78;;;9.20;99.61
78170;BME280;67412;49.892;14.490;2024-02-21T10:18:58;97490.94;;;9.23;99.50
78170;BME280;67412;49.892;14.490;2024-02-21T10:21:24;97498.50;;;9.41;100.00
78170;BME280;67412;49.892;14.490;2024-02-21T10:23:51;97495.81;;;9.62;100.00
78170;BME280;67412;49.892;14.490;2024-02-21T10:26:18;97496.66;;;9.63;100.00
78170;BME280;67412;49.892;14.490;2024-02-21T10:28:44;97485.50;;;9.64;97.68
78170;BME280;67412;49.892;14.490;2024-02-21T10:31:21;97483.84;;;9.57;95.57
78170;BME280;67412;49.892;14.490;2024-02-21T10:33:59;97480.44;;;9.56;100.00
78170;BME280;67412;49.892;14.490;2024-02-21T10:36:28;97491.31;;;9.89;99.43
78170;BME280;67412;49.892;14.490;2024-02-21T10:38:54;97489.47;;;10.04;100.00
78170;BME280;67412;49.892;14.490;2024-02-21T10:41:20;97497.22;;;9.94;100.00
78170;BME280;67412;49.892;14.490;2024-02-21T10:43:53;97501.75;;;9.66;97.93
78170;BME280;67412;49.892;14.490;2024-02-21T10:46:21;97495.06;;;9.48;99.09
78170;BME280;67412;49.892;14.490;2024-02-21T10:48:51;97485.47;;;9.68;100.00
78170;BME280;67412;49.892;14.490;2024-02-21T10:51:20;97483.75;;;9.74;96.97
78170;BME280;67412;49.892;14.490;2024-02-21T10:56:31;97478.50;;;9.83;96.86
78170;BME280;67412;49.892;14.490;2024-02-21T10:59:01;97477.63;;;9.88;95.62
78170;BME280;67412;49.892;14.490;2024-02-21T11:01:28;97472.19;;;10.22;93.83
78170;BME280;67412;49.892;14.490;2024-02-21T11:03:55;97461.94;;;10.20;90.19
78170;BME280;67412;49.892;14.490;2024-02-21T11:06:22;97464.50;;;10.22;90.99
78170;BME280;67412;49.892;14.490;2024-02-21T11:09:19;97471.00;;;10.50;91.36
78170;BME280;67412;49.892;14.490;2024-02-21T11:11:55;97460.59;;;10.63;85.93
78170;BME280;67412;49.892;14.490;2024-02-21T11:14:21;97460.72;;;10.51;86.62
78170;BME280;67412;49.892;14.490;2024-02-21T11:16:47;97464.34;;;10.35;87.77
78170;BME280;67412;49.892;14.490;2024-02-21T11:19:26;97460.91;;;10.36;87.19
78170;BME280;67412;49.892;14.490;2024-02-21T11:21:52;97445.56;;;10.30;87.73
78170;BME280;67412;49.892;14.490;2024-02-21T11:24:32;97453.28;;;10.29;88.13
78170;BME280;67412;49.892;14.490;2024-02-21T11:27:19;97442.41;;;10.04;86.53
78170;BME280;67412;49.892;14.490;2024-02-21T11:29:46;97447.63;;;9.95;87.99
78170;BME280;67412;49.892;14.490;2024-02-21T11:32:16;97453.41;;;10.20;88.77
78170;BME280;67412;49.892;14.490;2024-02-21T11:34:52;97448.28;;;10.20;87.29
78170;BME280;67412;49.892;14.490;2024-02-21T11:37:17;97447.22;;;10.36;86.62
78170;BME280;67412;49.892;14.490;2024-02-21T11:39:43;97441.31;;;10.29;85.41
78170;BME280;67412;49.892;14.490;2024-02-21T11:42:09;97431.97;;;10.21;86.97
78170;BME280;67412;49.892;14.490;2024-02-21T11:44:35;97437.09;;;10.22;88.64
78170;BME280;67412;49.892;14.490;2024-02-21T11:47:06;97431.06;;;10.25;87.08
78170;BME280;67412;49.892;14.490;2024-02-21T11:49:37;97422.44;;;10.35;88.82
78170;BME280;67412;49.892;14.490;2024-02-21T11:52:04;97431.53;;;10.60;87.21
78170;BME280;67412;49.892;14.490;2024-02-21T11:54:30;97424.66;;;10.60;85.88
78170;BME280;67412;49.892;14.490;2024-02-21T11:56:56;97407.81;;;10.38;87.63
78170;BME280;67412;49.892;14.490;2024-02-21T11:59:21;97415.34;;;10.50;87.92
78170;BME280;67412;49.892;14.490;2024-02-21T12:01:47;97414.31;;;10.66;87.47
78170;BME280;67412;49.892;14.490;2024-02-21T12:04:13;97417.69;;;10.70;87.91
78170;BME280;67412;49.892;14.490;2024-02-21T12:06:38;97412.13;;;11.02;87.01
78170;BME280;67412;49.892;14.490;2024-02-21T12:09:07;97406.66;;;11.23;84.62
78170;BME280;67412;49.892;14.490;2024-02-21T12:11:34;97389.69;;;11.11;85.88
78170;BME280;67412;49.892;14.490;2024-02-21T12:14:03;97382.94;;;11.55;85.77
78170;BME280;67412;49.892;14.490;2024-02-21T12:16:33;97382.53;;;11.30;84.48
78170;BME280;67412;49.892;14.490;2024-02-21T12:18:59;97386.34;;;11.05;84.05
78170;BME280;67412;49.892;14.490;2024-02-21T12:21:32;97377.56;;;11.18;86.60
78170;BME280;67412;49.892;14.490;2024-02-21T12:24:00;97372.78;;;11.50;86.76
78170;BME280;67412;49.892;14.490;2024-02-21T12:26:25;97369.69;;;11.29;86.51
78170;BME280;67412;49.892;14.490;2024-02-21T12:28:52;97377.50;;;11.24;85.11
78170;BME280;67412;49.892;14.490;2024-02-21T12:31:18;97370.72;;;11.19;83.08
78170;BME280;67412;49.892;14.490;2024-02-21T12:33:43;97364.94;;;11.04;88.03
78170;BME280;67412;49.892;14.490;2024-02-21T12:36:08;97364.78;;;11.13;87.06
78170;BME280;67412;49.892;14.490;2024-02-21T12:38:35;97359.81;;;11.03;87.70
78170;BME280;67412;49.892;14.490;2024-02-21T12:41:00;97349.41;;;11.10;85.59
78170;BME280;67412;49.892;14.490;2024-02-21T12:43:26;97345.63;;;10.76;85.75
78170;BME280;67412;49.892;14.490;2024-02-21T12:45:51;97337.19;;;10.70;88.41
78170;BME280;67412;49.892;14.490;2024-02-21T12:48:17;97331.19;;;10.71;86.53
78170;BME280;67412;49.892;14.490;2024-02-21T12:50:48;97331.28;;;10.61;86.34
78170;BME280;67412;49.892;14.490;2024-02-21T12:53:15;97335.41;;;10.75;85.91
78170;BME280;67412;49.892;14.490;2024-02-21T12:55:41;97315.91;;;11.15;85.41